createdAt,value
2018-11-25T00:01:27.665Z,2.93
2018-11-25T00:03:56.071Z,2.93
2018-11-25T00:06:24.168Z,2.33
2018-11-25T00:08:52.822Z,3.03
2018-11-25T00:11:21.193Z,3.33
2018-11-25T00:13:49.593Z,4.00
2018-11-25T00:16:17.987Z,4.00
2018-11-25T00:18:46.369Z,3.13
2018-11-25T00:21:14.760Z,3.13
2018-11-25T00:23:43.197Z,2.73
2018-11-25T00:26:11.285Z,3.53
2018-11-25T00:28:39.689Z,3.53
2018-11-25T00:31:09.646Z,3.50
2018-11-25T00:33:36.499Z,3.50
2018-11-25T00:36:04.882Z,3.33
2018-11-25T00:38:33.271Z,3.50
2018-11-25T00:41:01.646Z,2.97
2018-11-25T00:43:30.201Z,2.80
2018-11-25T00:45:58.576Z,2.70
2018-11-25T00:48:26.670Z,2.47
2018-11-25T00:50:55.040Z,2.50
2018-11-25T00:53:23.459Z,2.10
2018-11-25T00:55:51.828Z,2.53
2018-11-25T00:58:20.217Z,2.27
2018-11-25T01:00:48.597Z,2.03
2018-11-25T01:03:17.242Z,2.13
2018-11-25T01:05:45.606Z,1.83
2018-11-25T01:08:14.018Z,1.97
2018-11-25T01:10:42.421Z,1.93
2018-11-25T01:13:10.529Z,1.93
2018-11-25T01:15:38.903Z,2.20
2018-11-25T01:18:07.325Z,2.20
2018-11-25T01:20:35.693Z,2.20
2018-11-25T01:23:04.104Z,2.03
2018-11-25T01:25:32.480Z,2.23
2018-11-25T01:28:00.864Z,2.30
2018-11-25T01:30:29.036Z,2.33
2018-11-25T01:32:57.416Z,2.27
2018-11-25T01:35:25.796Z,2.07
2018-11-25T01:37:54.168Z,1.70
2018-11-25T01:40:22.547Z,1.60
2018-11-25T01:42:51.114Z,1.93
2018-11-25T01:45:19.508Z,1.90
2018-11-25T01:47:47.868Z,1.83
2018-11-25T01:50:17.062Z,1.53
2018-11-25T01:52:45.314Z,1.73
2018-11-25T01:55:15.000Z,1.43
2018-11-25T01:57:43.393Z,1.87
2018-11-25T02:00:14.957Z,1.77
2018-11-25T02:02:43.441Z,1.80
2018-11-25T02:05:11.836Z,1.60
2018-11-25T02:07:40.236Z,1.20
2018-11-25T02:10:13.841Z,1.90
2018-11-25T02:12:42.253Z,1.90
2018-11-25T02:15:11.869Z,2.30
2018-11-25T02:17:40.393Z,2.30
2018-11-25T02:20:10.748Z,2.00
2018-11-25T02:22:39.177Z,2.27
2018-11-25T02:25:07.645Z,2.33
2018-11-25T02:27:36.049Z,2.80
2018-11-25T02:30:05.417Z,2.40
2018-11-25T02:32:33.785Z,2.20
2018-11-25T02:35:02.187Z,2.10
2018-11-25T02:37:30.573Z,2.40
2018-11-25T02:39:58.980Z,3.00
2018-11-25T02:42:27.350Z,2.53
2018-11-25T02:44:55.734Z,2.33
2018-11-25T02:47:24.107Z,2.27
2018-11-25T02:49:52.492Z,2.40
2018-11-25T02:52:20.881Z,2.13
2018-11-25T02:54:49.292Z,2.47
2018-11-25T02:57:21.868Z,2.50
2018-11-25T02:59:50.353Z,2.70
2018-11-25T03:02:18.705Z,2.60
2018-11-25T03:04:47.105Z,2.40
2018-11-25T03:07:15.486Z,1.83
2018-11-25T03:09:43.873Z,2.73
2018-11-25T03:12:12.470Z,2.37
2018-11-25T03:14:40.901Z,2.60
2018-11-25T03:17:09.270Z,2.30
2018-11-25T03:19:37.661Z,2.50
2018-11-25T03:22:05.761Z,2.93
2018-11-25T03:24:34.150Z,2.50
2018-11-25T03:27:02.540Z,2.80
2018-11-25T03:29:30.945Z,2.03
2018-11-25T03:31:59.340Z,2.80
2018-11-25T03:34:27.733Z,2.50
2018-11-25T03:36:56.093Z,2.60
2018-11-25T03:39:24.653Z,2.37
2018-11-25T03:41:53.049Z,2.20
2018-11-25T03:44:21.451Z,2.43
2018-11-25T03:46:49.840Z,3.07
2018-11-25T03:49:18.230Z,2.67
2018-11-25T03:51:46.602Z,2.93
2018-11-25T03:54:14.986Z,2.70
2018-11-25T03:56:43.357Z,2.27
2018-11-25T03:59:11.765Z,2.57
2018-11-25T04:01:40.152Z,3.17
2018-11-25T04:04:08.293Z,3.00
2018-11-25T04:06:36.700Z,2.83
2018-11-25T04:09:07.053Z,2.57
2018-11-25T04:11:35.536Z,3.07
2018-11-25T04:14:04.009Z,2.13
2018-11-25T04:16:32.375Z,2.40
2018-11-25T04:19:00.753Z,2.47
2018-11-25T04:21:29.146Z,2.77
2018-11-25T04:23:57.569Z,2.50
2018-11-25T04:26:25.960Z,3.37
2018-11-25T04:28:54.350Z,2.97
2018-11-25T04:31:22.733Z,2.93
2018-11-25T04:33:51.089Z,3.70
2018-11-25T04:36:19.477Z,2.63
2018-11-25T04:38:47.834Z,2.70
2018-11-25T04:41:16.224Z,3.07
2018-11-25T04:43:44.621Z,2.90
2018-11-25T04:46:12.998Z,2.97
2018-11-25T04:48:41.392Z,2.57
2018-11-25T04:51:09.785Z,3.00
2018-11-25T04:53:38.189Z,3.00
2018-11-25T04:56:06.701Z,3.20
2018-11-25T04:58:35.072Z,2.77
2018-11-25T05:01:03.470Z,2.80
2018-11-25T05:03:31.845Z,3.20
2018-11-25T05:06:00.225Z,3.23
2018-11-25T05:08:28.592Z,3.27
2018-11-25T05:10:56.988Z,3.20
2018-11-25T05:13:25.363Z,3.30
2018-11-25T05:15:53.742Z,3.30
2018-11-25T05:18:22.110Z,3.27
2018-11-25T05:20:50.486Z,4.13
2018-11-25T05:23:18.866Z,2.63
2018-11-25T05:25:47.247Z,3.47
2018-11-25T05:28:15.643Z,3.27
2018-11-25T05:30:44.023Z,3.40
2018-11-25T05:33:12.421Z,2.90
2018-11-25T05:35:40.804Z,3.37
2018-11-25T05:38:09.190Z,3.23
2018-11-25T05:40:37.592Z,3.30
2018-11-25T05:43:05.964Z,2.80
2018-11-25T05:45:34.348Z,3.87
2018-11-25T05:48:02.730Z,3.60
2018-11-25T05:50:31.133Z,3.30
2018-11-25T05:52:59.503Z,3.97
2018-11-25T05:55:28.072Z,3.27
2018-11-25T05:57:56.453Z,3.97
2018-11-25T06:00:32.937Z,3.63
2018-11-25T06:03:01.782Z,3.50
2018-11-25T06:05:30.210Z,3.37
2018-11-25T06:07:58.593Z,3.70
2018-11-25T06:10:26.975Z,3.70
2018-11-25T06:12:55.353Z,3.37
2018-11-25T06:15:23.786Z,4.07
2018-11-25T06:17:52.158Z,4.17
2018-11-25T06:20:20.546Z,3.67
2018-11-25T06:22:49.033Z,3.63
2018-11-25T06:25:18.707Z,3.43
2018-11-25T06:27:47.093Z,4.33
2018-11-25T06:30:16.495Z,3.97
2018-11-25T06:32:44.921Z,5.63
2018-11-25T06:35:14.472Z,4.70
2018-11-25T06:37:42.877Z,6.57
2018-11-25T06:40:12.570Z,5.70
2018-11-25T06:42:40.965Z,5.63
2018-11-25T06:45:17.988Z,7.10
2018-11-25T06:47:46.378Z,4.53
2018-11-25T06:50:14.804Z,6.13
2018-11-25T06:52:43.265Z,5.87
2018-11-25T06:55:12.653Z,5.17
2018-11-25T06:57:41.064Z,6.63
2018-11-25T07:00:24.408Z,5.53
2018-11-25T07:02:52.820Z,4.50
2018-11-25T07:05:21.225Z,3.87
2018-11-25T07:07:49.620Z,4.10
2018-11-25T07:10:19.204Z,4.23
2018-11-25T07:12:48.656Z,4.00
2018-11-25T07:15:17.814Z,4.60
2018-11-25T07:17:46.305Z,4.03
2018-11-25T07:20:14.871Z,4.07
2018-11-25T07:22:43.258Z,4.07
2018-11-25T07:25:20.505Z,3.70
2018-11-25T07:27:48.919Z,3.97
2018-11-25T07:30:22.464Z,3.97
2018-11-25T07:32:50.835Z,3.33
2018-11-25T07:35:19.214Z,4.33
2018-11-25T07:37:47.589Z,3.40
2018-11-25T07:40:17.314Z,4.03
2018-11-25T07:42:45.415Z,5.97
2018-11-25T07:45:15.089Z,3.30
2018-11-25T07:47:43.466Z,4.23
2018-11-25T07:50:12.903Z,3.10
2018-11-25T07:52:42.113Z,9.30
2018-11-25T07:55:13.765Z,10.60
2018-11-25T07:57:42.335Z,6.80
2018-11-25T08:00:13.322Z,4.27
2018-11-25T08:02:41.833Z,3.70
2018-11-25T08:05:11.393Z,4.00
2018-11-25T08:07:39.817Z,3.80
2018-11-25T08:10:10.504Z,4.50
2018-11-25T08:12:39.087Z,4.10
2018-11-25T08:15:09.424Z,4.43
2018-11-25T08:17:38.071Z,4.67
2018-11-25T08:20:08.374Z,5.33
2018-11-25T08:22:36.792Z,4.70
2018-11-25T08:25:07.508Z,4.93
2018-11-25T08:27:35.928Z,4.40
2018-11-25T08:30:06.344Z,4.67
2018-11-25T08:32:34.840Z,5.00
2018-11-25T08:35:03.278Z,5.47
2018-11-25T08:37:31.709Z,5.47
2018-11-25T08:40:00.245Z,5.63
2018-11-25T08:42:28.646Z,5.27
2018-11-25T08:44:57.021Z,5.33
2018-11-25T08:47:25.418Z,5.50
2018-11-25T08:49:53.898Z,5.33
2018-11-25T08:52:22.290Z,4.37
2018-11-25T08:54:50.677Z,5.13
2018-11-25T08:57:19.092Z,6.27
2018-11-25T08:59:47.597Z,4.50
2018-11-25T09:02:15.736Z,7.90
2018-11-25T09:04:44.132Z,5.37
2018-11-25T09:07:12.581Z,5.07
2018-11-25T09:09:40.949Z,5.03
2018-11-25T09:12:09.032Z,5.07
2018-11-25T09:14:37.400Z,5.60
2018-11-25T09:17:06.786Z,6.00
2018-11-25T09:19:35.177Z,5.03
2018-11-25T09:22:03.577Z,5.57
2018-11-25T09:24:31.955Z,5.97
2018-11-25T09:27:00.363Z,4.67
2018-11-25T09:29:28.758Z,4.70
2018-11-25T09:31:57.181Z,5.77
2018-11-25T09:34:25.557Z,5.30
2018-11-25T09:36:53.950Z,5.30
2018-11-25T09:39:22.328Z,5.70
2018-11-25T09:41:50.744Z,5.50
2018-11-25T09:44:19.125Z,4.20
2018-11-25T09:46:47.505Z,5.13
2018-11-25T09:49:15.884Z,5.63
2018-11-25T09:51:44.273Z,6.23
2018-11-25T09:54:12.636Z,5.63
2018-11-25T09:56:41.038Z,5.13
2018-11-25T09:59:09.402Z,5.13
2018-11-25T10:01:37.805Z,5.73
2018-11-25T10:04:06.450Z,5.83
2018-11-25T10:06:34.882Z,6.33
2018-11-25T10:09:03.360Z,6.03
2018-11-25T10:11:31.769Z,6.13
2018-11-25T10:14:00.146Z,6.10
2018-11-25T10:16:28.540Z,5.60
2018-11-25T10:18:56.977Z,5.33
2018-11-25T10:21:25.349Z,5.07
2018-11-25T10:23:53.729Z,4.97
2018-11-25T10:26:22.108Z,6.60
2018-11-25T10:28:50.584Z,5.87
2018-11-25T10:31:19.009Z,6.20
2018-11-25T10:33:47.089Z,5.70
2018-11-25T10:36:15.452Z,6.07
2018-11-25T10:38:44.038Z,5.50
2018-11-25T10:41:12.450Z,5.97
2018-11-25T10:43:41.041Z,5.90
2018-11-25T10:46:09.439Z,5.93
2018-11-25T10:48:37.805Z,7.27
2018-11-25T10:51:06.297Z,5.70
2018-11-25T10:53:34.969Z,7.13
2018-11-25T10:56:03.359Z,5.77
2018-11-25T10:58:31.768Z,6.30
2018-11-25T11:01:05.422Z,6.07
2018-11-25T11:03:39.077Z,7.40
2018-11-25T11:06:12.776Z,5.53
2018-11-25T11:08:41.153Z,5.37
2018-11-25T11:11:09.525Z,5.90
2018-11-25T11:13:38.081Z,7.37
2018-11-25T11:16:06.511Z,6.53
2018-11-25T11:18:34.927Z,6.40
2018-11-25T11:21:03.309Z,6.67
2018-11-25T11:23:31.690Z,6.10
2018-11-25T11:26:06.525Z,5.80
2018-11-25T11:28:28.237Z,7.50
2018-11-25T11:30:56.615Z,8.03
2018-11-25T11:33:25.227Z,6.37
2018-11-25T11:35:53.612Z,9.67
2018-11-25T11:38:21.716Z,7.93
2018-11-25T11:40:49.832Z,9.33
2018-11-25T11:43:18.221Z,9.27
2018-11-25T11:45:46.626Z,8.10
2018-11-25T11:48:15.026Z,7.33
2018-11-25T11:50:43.417Z,7.80
2018-11-25T11:53:11.813Z,7.70
2018-11-25T11:55:40.209Z,7.53
2018-11-25T11:58:08.703Z,8.53
2018-11-25T12:00:37.181Z,8.33
2018-11-25T12:03:06.070Z,7.57
2018-11-25T12:05:34.445Z,9.43
2018-11-25T12:08:02.829Z,9.63
2018-11-25T12:10:31.245Z,10.33
2018-11-25T12:12:59.742Z,7.30
2018-11-25T12:15:31.024Z,7.50
2018-11-25T12:17:58.512Z,8.97
2018-11-25T12:20:28.020Z,8.20
2018-11-25T12:22:57.123Z,9.40
2018-11-25T12:25:25.600Z,8.90
2018-11-25T12:27:54.344Z,9.27
2018-11-25T12:30:23.954Z,10.63
2018-11-25T12:32:52.747Z,9.27
2018-11-25T12:35:21.141Z,10.83
2018-11-25T12:37:49.538Z,10.80
2018-11-25T12:40:19.937Z,11.17
2018-11-25T12:42:50.681Z,12.23
2018-11-25T12:45:19.461Z,10.53
2018-11-25T12:47:47.920Z,11.57
2018-11-25T12:50:17.438Z,12.27
2018-11-25T12:52:45.529Z,16.57
2018-11-25T12:55:16.190Z,15.60
2018-11-25T12:57:44.588Z,14.57
2018-11-25T13:00:22.358Z,11.23
2018-11-25T13:02:50.440Z,11.60
2018-11-25T13:05:18.853Z,14.70
2018-11-25T13:07:47.288Z,12.43
2018-11-25T13:10:15.693Z,12.00
2018-11-25T13:12:44.101Z,12.40
2018-11-25T13:15:12.502Z,11.17
2018-11-25T13:17:40.953Z,12.37
2018-11-25T13:20:13.653Z,15.47
2018-11-25T13:22:42.080Z,14.27
2018-11-25T13:25:12.506Z,11.13
2018-11-25T13:27:40.900Z,11.87
2018-11-25T13:30:22.472Z,12.60
2018-11-25T13:32:51.970Z,13.17
2018-11-25T13:35:20.382Z,13.10
2018-11-25T13:37:48.838Z,15.20
2018-11-25T13:40:17.489Z,13.07
2018-11-25T13:42:45.912Z,13.33
2018-11-25T13:45:14.452Z,12.63
2018-11-25T13:47:42.830Z,14.23
2018-11-25T13:50:12.062Z,10.43
2018-11-25T13:52:40.492Z,10.50
2018-11-25T13:55:14.420Z,11.50
2018-11-25T13:57:42.823Z,12.03
2018-11-25T14:00:47.889Z,13.13
2018-11-25T14:03:22.480Z,11.00
2018-11-25T14:05:53.353Z,11.93
2018-11-25T14:08:19.345Z,11.13
2018-11-25T14:10:47.729Z,11.83
2018-11-25T14:13:16.105Z,12.90
2018-11-25T14:15:44.505Z,10.90
2018-11-25T14:18:12.926Z,10.90
2018-11-25T14:20:41.049Z,10.40
2018-11-25T14:23:09.433Z,10.93
2018-11-25T14:25:37.837Z,13.07
2018-11-25T14:28:09.300Z,11.77
2018-11-25T14:30:37.790Z,11.83
2018-11-25T14:33:06.271Z,12.47
2018-11-25T14:35:34.758Z,13.00
2018-11-25T14:38:02.868Z,11.47
2018-11-25T14:40:31.289Z,10.97
2018-11-25T14:42:59.689Z,14.10
2018-11-25T14:45:28.093Z,13.50
2018-11-25T14:47:56.489Z,15.27
2018-11-25T14:50:24.881Z,11.50
2018-11-25T14:52:53.206Z,20.10
2018-11-25T14:55:21.654Z,11.47
2018-11-25T14:57:50.121Z,14.10
2018-11-25T15:00:19.566Z,11.80
2018-11-25T15:02:50.670Z,12.80
2018-11-25T15:05:22.197Z,12.47
2018-11-25T15:07:50.589Z,14.00
2018-11-25T15:10:19.005Z,14.70
2018-11-25T15:12:47.408Z,18.40
2018-11-25T15:15:16.645Z,13.27
2018-11-25T15:17:45.335Z,11.27
2018-11-25T15:20:14.216Z,12.50
2018-11-25T15:22:44.280Z,11.30
2018-11-25T15:25:17.865Z,13.43
2018-11-25T15:27:45.987Z,20.13
2018-11-25T15:30:14.578Z,12.70
2018-11-25T15:32:42.945Z,19.80
2018-11-25T15:35:12.527Z,11.93
2018-11-25T15:37:42.651Z,11.20
2018-11-25T15:40:29.153Z,13.53
2018-11-25T15:42:57.556Z,10.03
2018-11-25T15:45:25.945Z,10.17
2018-11-25T15:47:59.305Z,11.30
2018-11-25T15:50:28.529Z,11.87
2018-11-25T15:52:57.136Z,12.00
2018-11-25T15:55:25.646Z,12.40
2018-11-25T15:57:54.093Z,83.47
2018-11-25T16:00:23.731Z,39.63
2018-11-25T16:02:52.165Z,14.07
2018-11-25T16:05:35.378Z,11.90
2018-11-25T16:08:04.441Z,10.43
2018-11-25T16:10:32.188Z,9.43
2018-11-25T16:13:00.602Z,10.23
2018-11-25T16:15:29.257Z,10.63
2018-11-25T16:17:57.664Z,12.37
2018-11-25T16:20:27.372Z,14.33
2018-11-25T16:22:59.381Z,10.87
2018-11-25T16:25:33.510Z,10.70
2018-11-25T16:29:07.921Z,15.27
2018-11-25T16:31:36.329Z,35.17
2018-11-25T16:34:04.758Z,20.50
2018-11-25T16:36:33.385Z,17.57
2018-11-25T16:39:01.807Z,18.07
2018-11-25T16:41:30.208Z,21.90
2018-11-25T16:43:58.643Z,16.73
2018-11-25T16:46:27.025Z,17.03
2018-11-25T16:48:55.430Z,18.30
2018-11-25T16:51:23.848Z,13.73
2018-11-25T16:53:52.345Z,16.23
2018-11-25T16:56:20.733Z,12.67
2018-11-25T16:58:49.137Z,14.53
2018-11-25T17:01:17.524Z,17.67
2018-11-25T17:03:45.928Z,11.93
2018-11-25T17:06:14.743Z,11.57
2018-11-25T17:08:43.845Z,11.93
2018-11-25T17:11:12.214Z,12.83
2018-11-25T17:13:40.658Z,12.60
2018-11-25T17:16:09.376Z,12.53
2018-11-25T17:18:38.717Z,14.60
2018-11-25T17:21:07.215Z,14.93
2018-11-25T17:23:35.608Z,13.77
2018-11-25T17:26:04.038Z,13.93
2018-11-25T17:28:32.483Z,12.40
2018-11-25T17:31:00.880Z,13.87
2018-11-25T17:33:29.268Z,11.83
2018-11-25T17:35:57.380Z,12.30
2018-11-25T17:38:25.783Z,13.20
2018-11-25T17:40:54.181Z,11.43
2018-11-25T17:43:23.510Z,13.40
2018-11-25T17:45:51.922Z,11.30
2018-11-25T17:48:20.375Z,13.03
2018-11-25T17:50:48.757Z,12.40
2018-11-25T17:53:20.894Z,18.73
2018-11-25T17:55:45.720Z,14.37
2018-11-25T17:58:14.116Z,11.53
2018-11-25T18:00:50.172Z,15.40
2018-11-25T18:03:21.921Z,11.37
2018-11-25T18:05:50.343Z,9.63
2018-11-25T18:08:18.741Z,11.60
2018-11-25T18:10:47.117Z,16.47
2018-11-25T18:13:16.715Z,14.63
2018-11-25T18:15:45.129Z,11.53
2018-11-25T18:18:15.382Z,13.93
2018-11-25T18:20:47.714Z,12.37
2018-11-25T18:23:16.259Z,13.40
2018-11-25T18:25:44.363Z,11.33
2018-11-25T18:28:12.767Z,12.60
2018-11-25T18:30:41.157Z,12.03
2018-11-25T18:33:09.557Z,10.77
2018-11-25T18:35:37.973Z,12.53
2018-11-25T18:38:07.159Z,9.83
2018-11-25T18:40:35.593Z,11.47
2018-11-25T18:43:04.360Z,11.17
2018-11-25T18:45:32.755Z,10.90
2018-11-25T18:48:01.152Z,12.57
2018-11-25T18:50:29.589Z,10.97
2018-11-25T18:52:57.693Z,9.63
2018-11-25T18:55:24.981Z,11.00
2018-11-25T18:57:53.378Z,11.07
2018-11-25T19:00:31.905Z,11.50
2018-11-25T19:03:00.398Z,11.90
2018-11-25T19:05:28.777Z,11.77
2018-11-25T19:07:57.197Z,12.77
2018-11-25T19:10:25.589Z,11.33
2018-11-25T19:12:53.990Z,11.37
2018-11-25T19:15:22.395Z,10.90
2018-11-25T19:17:50.793Z,11.03
2018-11-25T19:20:26.336Z,10.43
2018-11-25T19:22:56.230Z,10.27
2018-11-25T19:25:24.620Z,11.40
2018-11-25T19:27:53.838Z,10.77
2018-11-25T19:30:26.677Z,12.60
2018-11-25T19:32:50.988Z,10.27
2018-11-25T19:35:20.698Z,10.93
2018-11-25T19:37:51.018Z,12.53
2018-11-25T19:40:22.113Z,11.33
2018-11-25T19:42:50.840Z,10.57
2018-11-25T19:45:25.616Z,11.17
2018-11-25T19:47:54.617Z,10.53
2018-11-25T19:50:23.689Z,10.37
2018-11-25T19:52:52.089Z,10.13
2018-11-25T19:55:21.692Z,9.00
2018-11-25T19:57:49.013Z,10.00
2018-11-25T20:00:21.825Z,10.37
2018-11-25T20:02:50.205Z,9.43
2018-11-25T20:05:18.635Z,9.20
2018-11-25T20:07:47.115Z,8.87
2018-11-25T20:10:17.985Z,9.20
2018-11-25T20:12:46.668Z,8.47
2018-11-25T20:15:16.181Z,9.37
2018-11-25T20:17:53.736Z,8.67
2018-11-25T20:20:15.073Z,8.97
2018-11-25T20:22:43.613Z,9.07
2018-11-25T20:25:12.758Z,8.17
2018-11-25T20:27:42.556Z,9.33
2018-11-25T20:30:12.133Z,8.87
2018-11-25T20:32:45.837Z,8.60
2018-11-25T20:35:14.259Z,7.90
2018-11-25T20:37:47.989Z,6.67
2018-11-25T20:40:16.431Z,7.30
2018-11-25T20:42:44.830Z,7.43
2018-11-25T20:45:19.638Z,6.17
2018-11-25T20:47:48.029Z,7.00
2018-11-25T20:50:16.421Z,6.87
2018-11-25T20:52:50.108Z,5.63
2018-11-25T20:55:18.544Z,6.37
2018-11-25T20:57:46.935Z,5.70
2018-11-25T21:00:17.637Z,5.37
2018-11-25T21:02:46.020Z,6.33
2018-11-25T21:05:15.235Z,6.27
2018-11-25T21:07:43.614Z,5.87
2018-11-25T21:10:13.401Z,6.37
2018-11-25T21:12:41.869Z,5.77
2018-11-25T21:15:11.033Z,6.43
2018-11-25T21:17:39.839Z,5.93
2018-11-25T21:20:10.759Z,5.70
2018-11-25T21:22:39.138Z,6.50
2018-11-25T21:25:10.233Z,5.47
2018-11-25T21:27:38.621Z,6.57
2018-11-25T21:30:13.354Z,6.37
2018-11-25T21:32:41.781Z,6.77
2018-11-25T21:35:11.357Z,6.13
2018-11-25T21:37:39.733Z,5.57
2018-11-25T21:40:13.292Z,6.43
2018-11-25T21:42:41.692Z,7.20
2018-11-25T21:45:11.537Z,6.60
2018-11-25T21:47:39.922Z,6.60
2018-11-25T21:50:10.686Z,7.23
2018-11-25T21:52:39.145Z,6.10
2018-11-25T21:55:11.025Z,7.47
2018-11-25T21:57:39.429Z,6.77
2018-11-25T22:00:12.061Z,8.33
2018-11-25T22:02:40.557Z,6.13
2018-11-25T22:05:10.195Z,7.63
2018-11-25T22:07:38.618Z,6.17
2018-11-25T22:10:10.405Z,6.80
2018-11-25T22:12:39.515Z,7.07
2018-11-25T22:15:09.624Z,6.63
2018-11-25T22:17:38.016Z,7.70
2018-11-25T22:20:08.197Z,6.80
2018-11-25T22:22:36.347Z,7.07
2018-11-25T22:25:07.288Z,5.87
2018-11-25T22:27:35.689Z,6.93
2018-11-25T22:30:04.692Z,6.40
2018-11-25T22:32:33.137Z,5.93
2018-11-25T22:35:01.706Z,6.43
2018-11-25T22:37:30.103Z,5.87
2018-11-25T22:39:58.481Z,5.90
2018-11-25T22:42:26.873Z,6.73
2018-11-25T22:44:55.249Z,5.67
2018-11-25T22:47:23.630Z,6.43
2018-11-25T22:49:52.003Z,6.90
2018-11-25T22:52:20.401Z,6.33
2018-11-25T22:54:48.764Z,5.47
2018-11-25T22:57:17.149Z,6.10
2018-11-25T22:59:45.521Z,5.80
2018-11-25T23:02:14.006Z,7.07
2018-11-25T23:04:53.701Z,6.40
2018-11-25T23:07:22.080Z,6.37
2018-11-25T23:09:50.462Z,6.80
2018-11-25T23:12:18.849Z,6.67
2018-11-25T23:14:47.234Z,6.70
2018-11-25T23:17:15.644Z,6.47
2018-11-25T23:19:44.033Z,5.53
2018-11-25T23:22:12.443Z,5.97
2018-11-25T23:24:40.821Z,6.03
2018-11-25T23:27:09.205Z,6.07
2018-11-25T23:29:37.598Z,6.40
2018-11-25T23:32:06.221Z,6.37
2018-11-25T23:34:34.605Z,5.87
2018-11-25T23:37:02.989Z,5.63
2018-11-25T23:39:31.089Z,6.27
2018-11-25T23:41:59.474Z,6.90
2018-11-25T23:44:27.856Z,6.63
2018-11-25T23:46:56.293Z,6.80
2018-11-25T23:49:24.668Z,5.73
2018-11-25T23:51:53.167Z,6.07
2018-11-25T23:54:21.573Z,5.77
2018-11-25T23:56:49.956Z,7.03
2018-11-25T23:59:18.344Z,6.10
